sensor_id;sensor_type;location;lat;lon;timestamp;temperature;humidity
47921;DHT22;33686;48.770;9.186;2023-12-29T06:16:45;9.00;99.90
47921;DHT22;33686;48.770;9.186;2023-12-29T06:19:10;9.10;99.90
47921;DHT22;33686;48.770;9.186;2023-12-29T06:21:42;9.10;99.90
47921;DHT22;33686;48.770;9.186;2023-12-29T06:24:11;9.00;99.90
47921;DHT22;33686;48.770;9.186;2023-12-29T06:26:37;9.00;99.90
47921;DHT22;33686;48.770;9.186;2023-12-29T06:29:07;9.10;99.90
47921;DHT22;33686;48.770;9.186;2023-12-29T06:31:33;9.00;99.90
47921;DHT22;33686;48.770;9.186;2023-12-29T06:33:59;9.00;99.90
47921;DHT22;33686;48.770;9.186;2023-12-29T06:36:25;9.00;99.90
47921;DHT22;33686;48.770;9.186;2023-12-29T06:38:51;8.90;99.90
47921;DHT22;33686;48.770;9.186;2023-12-29T06:41:19;8.90;99.90
47921;DHT22;33686;48.770;9.186;2023-12-29T06:43:44;8.90;99.90
47921;DHT22;33686;48.770;9.186;2023-12-29T06:46:11;9.00;99.90
47921;DHT22;33686;48.770;9.186;2023-12-29T06:48:39;9.00;99.90
47921;DHT22;33686;48.770;9.186;2023-12-29T06:51:05;9.00;99.90
47921;DHT22;33686;48.770;9.186;2023-12-29T06:53:30;9.00;99.90
47921;DHT22;33686;48.770;9.186;2023-12-29T06:55:56;9.00;99.90
47921;DHT22;33686;48.770;9.186;2023-12-29T06:58:22;8.90;99.90
47921;DHT22;33686;48.770;9.186;2023-12-29T07:00:48;8.90;99.90
47921;DHT22;33686;48.770;9.186;2023-12-29T07:03:14;8.90;99.90
47921;DHT22;33686;48.770;9.186;2023-12-29T07:05:40;9.00;99.90
47921;DHT22;33686;48.770;9.186;2023-12-29T07:08:06;9.00;99.90
47921;DHT22;33686;48.770;9.186;2023-12-29T07:10:32;9.10;99.90
47921;DHT22;33686;48.770;9.186;2023-12-29T07:12:57;9.00;99.90
47921;DHT22;33686;48.770;9.186;2023-12-29T07:15:23;9.10;99.90
47921;DHT22;33686;48.770;9.186;2023-12-29T07:17:49;9.10;99.90
47921;DHT22;33686;48.770;9.186;2023-12-29T07:20:15;9.10;99.90
47921;DHT22;33686;48.770;9.186;2023-12-29T07:22:40;9.10;99.90
47921;DHT22;33686;48.770;9.186;2023-12-29T07:25:06;9.20;99.90
47921;DHT22;33686;48.770;9.186;2023-12-29T07:27:32;9.10;99.90
47921;DHT22;33686;48.770;9.186;2023-12-29T07:29:57;9.20;99.90
47921;DHT22;33686;48.770;9.186;2023-12-29T07:32:23;9.20;99.90
47921;DHT22;33686;48.770;9.186;2023-12-29T07:34:49;9.20;99.90
47921;DHT22;33686;48.770;9.186;2023-12-29T07:37:14;9.20;99.90
47921;DHT22;33686;48.770;9.186;2023-12-29T07:39:40;9.20;99.90
47921;DHT22;33686;48.770;9.186;2023-12-29T07:42:06;9.20;99.90
47921;DHT22;33686;48.770;9.186;2023-12-29T07:44:31;9.30;99.90
47921;DHT22;33686;48.770;9.186;2023-12-29T07:46:57;9.30;99.90
47921;DHT22;33686;48.770;9.186;2023-12-29T07:49:23;9.30;99.90
47921;DHT22;33686;48.770;9.186;2023-12-29T07:51:48;9.40;99.90
47921;DHT22;33686;48.770;9.186;2023-12-29T07:54:14;9.40;99.90
47921;DHT22;33686;48.770;9.186;2023-12-29T07:56:39;9.40;99.90
47921;DHT22;33686;48.770;9.186;2023-12-29T07:59:05;9.50;99.90
47921;DHT22;33686;48.770;9.186;2023-12-29T08:01:31;9.50;99.90
47921;DHT22;33686;48.770;9.186;2023-12-29T08:03:57;9.50;99.90
47921;DHT22;33686;48.770;9.186;2023-12-29T08:06:23;9.60;99.90
47921;DHT22;33686;48.770;9.186;2023-12-29T08:08:48;9.60;99.90
47921;DHT22;33686;48.770;9.186;2023-12-29T08:11:15;9.70;99.90
47921;DHT22;33686;48.770;9.186;2023-12-29T08:13:46;9.70;99.90
47921;DHT22;33686;48.770;9.186;2023-12-29T08:16:12;9.70;99.90
47921;DHT22;33686;48.770;9.186;2023-12-29T08:18:37;9.80;99.90
47921;DHT22;33686;48.770;9.186;2023-12-29T08:21:03;9.80;99.90
47921;DHT22;33686;48.770;9.186;2023-12-29T08:23:29;9.80;99.90
47921;DHT22;33686;48.770;9.186;2023-12-29T08:25:56;9.80;99.90
47921;DHT22;33686;48.770;9.186;2023-12-29T08:28:23;9.80;99.90
47921;DHT22;33686;48.770;9.186;2023-12-29T08:30:48;9.80;99.90
47921;DHT22;33686;48.770;9.186;2023-12-29T08:33:14;9.90;99.90
47921;DHT22;33686;48.770;9.186;2023-12-29T08:35:41;9.90;99.90
47921;DHT22;33686;48.770;9.186;2023-12-29T08:38:07;9.80;99.90
47921;DHT22;33686;48.770;9.186;2023-12-29T08:40:32;9.90;99.90
47921;DHT22;33686;48.770;9.186;2023-12-29T08:42:58;9.90;99.90
47921;DHT22;33686;48.770;9.186;2023-12-29T08:45:24;9.90;99.90
47921;DHT22;33686;48.770;9.186;2023-12-29T08:47:49;9.90;99.90
47921;DHT22;33686;48.770;9.186;2023-12-29T08:50:15;9.90;99.90
47921;DHT22;33686;48.770;9.186;2023-12-29T08:52:41;9.90;99.90
47921;DHT22;33686;48.770;9.186;2023-12-29T08:55:06;10.00;99.90
47921;DHT22;33686;48.770;9.186;2023-12-29T08:57:33;10.00;99.90
47921;DHT22;33686;48.770;9.186;2023-12-29T08:59:59;10.00;99.90
47921;DHT22;33686;48.770;9.186;2023-12-29T09:02:25;10.00;99.90
47921;DHT22;33686;48.770;9.186;2023-12-29T09:04:50;9.90;99.90
47921;DHT22;33686;48.770;9.186;2023-12-29T09:07:16;9.90;99.90
47921;DHT22;33686;48.770;9.186;2023-12-29T09:09:42;9.90;99.90
47921;DHT22;33686;48.770;9.186;2023-12-29T09:12:07;9.90;99.90
47921;DHT22;33686;48.770;9.186;2023-12-29T09:14:33;9.90;99.90
47921;DHT22;33686;48.770;9.186;2023-12-29T09:17:00;9.90;99.90
47921;DHT22;33686;48.770;9.186;2023-12-29T09:19:25;10.00;99.90
47921;DHT22;33686;48.770;9.186;2023-12-29T09:21:51;10.10;99.90
47921;DHT22;33686;48.770;9.186;2023-12-29T09:24:16;10.10;99.90
47921;DHT22;33686;48.770;9.186;2023-12-29T09:26:42;10.20;99.90
47921;DHT22;33686;48.770;9.186;2023-12-29T09:29:07;10.30;99.90
47921;DHT22;33686;48.770;9.186;2023-12-29T09:31:33;10.50;99.90
47921;DHT22;33686;48.770;9.186;2023-12-29T09:33:58;10.70;99.90
47921;DHT22;33686;48.770;9.186;2023-12-29T09:36:25;10.90;99.90
47921;DHT22;33686;48.770;9.186;2023-12-29T09:38:51;11.00;99.90
47921;DHT22;33686;48.770;9.186;2023-12-29T09:41:17;11.00;99.90
47921;DHT22;33686;48.770;9.186;2023-12-29T09:43:43;10.90;99.90
47921;DHT22;33686;48.770;9.186;2023-12-29T09:46:11;10.80;99.90
47921;DHT22;33686;48.770;9.186;2023-12-29T09:48:40;10.70;99.90
47921;DHT22;33686;48.770;9.186;2023-12-29T09:51:10;10.70;99.90
47921;DHT22;33686;48.770;9.186;2023-12-29T09:53:36;10.60;99.90
47921;DHT22;33686;48.770;9.186;2023-12-29T09:56:03;10.60;99.90
47921;DHT22;33686;48.770;9.186;2023-12-29T09:58:31;10.60;99.90
47921;DHT22;33686;48.770;9.186;2023-12-29T10:00:57;10.70;99.90
47921;DHT22;33686;48.770;9.186;2023-12-29T10:03:22;10.70;99.90
47921;DHT22;33686;48.770;9.186;2023-12-29T10:05:51;10.80;99.90
47921;DHT22;33686;48.770;9.186;2023-12-29T10:08:17;10.80;99.90
47921;DHT22;33686;48.770;9.186;2023-12-29T10:10:43;10.80;99.90
47921;DHT22;33686;48.770;9.186;2023-12-29T10:13:10;10.90;99.90
47921;DHT22;33686;48.770;9.186;2023-12-29T10:15:55;10.90;99.90
47921;DHT22;33686;48.770;9.186;2023-12-29T10:18:32;10.80;99.90
47921;DHT22;33686;48.770;9.186;2023-12-29T10:21:11;10.90;99.90
47921;DHT22;33686;48.770;9.186;2023-12-29T10:23:54;10.90;99.90
47921;DHT22;33686;48.770;9.186;2023-12-29T10:26:22;11.00;99.90
47921;DHT22;33686;48.770;9.186;2023-12-29T10:28:48;10.90;99.90
47921;DHT22;33686;48.770;9.186;2023-12-29T10:31:17;10.90;99.90
47921;DHT22;33686;48.770;9.186;2023-12-29T10:33:42;10.80;99.90
47921;DHT22;33686;48.770;9.186;2023-12-29T10:36:08;10.90;99.90
47921;DHT22;33686;48.770;9.186;2023-12-29T10:38:38;10.90;99.90
47921;DHT22;33686;48.770;9.186;2023-12-29T10:41:14;11.00;99.90
47921;DHT22;33686;48.770;9.186;2023-12-29T10:43:43;11.00;99.90
47921;DHT22;33686;48.770;9.186;2023-12-29T10:46:10;11.10;99.90
47921;DHT22;33686;48.770;9.186;2023-12-29T10:48:36;11.10;99.90
47921;DHT22;33686;48.770;9.186;2023-12-29T10:51:02;11.20;99.90
47921;DHT22;33686;48.770;9.186;2023-12-29T10:53:33;11.20;99.90
47921;DHT22;33686;48.770;9.186;2023-12-29T10:55:58;11.30;99.90
47921;DHT22;33686;48.770;9.186;2023-12-29T10:58:24;11.30;99.90
47921;DHT22;33686;48.770;9.186;2023-12-29T11:00:53;11.30;99.90
47921;DHT22;33686;48.770;9.186;2023-12-29T11:03:19;11.30;99.90
47921;DHT22;33686;48.770;9.186;2023-12-29T11:05:44;11.40;99.90
47921;DHT22;33686;48.770;9.186;2023-12-29T11:08:19;11.40;99.90
47921;DHT22;33686;48.770;9.186;2023-12-29T11:10:47;11.50;99.90
47921;DHT22;33686;48.770;9.186;2023-12-29T11:13:13;11.50;99.90
47921;DHT22;33686;48.770;9.186;2023-12-29T11:15:43;11.50;99.90
47921;DHT22;33686;48.770;9.186;2023-12-29T11:18:14;11.50;99.90
47921;DHT22;33686;48.770;9.186;2023-12-29T11:20:40;11.50;99.90
47921;DHT22;33686;48.770;9.186;2023-12-29T11:23:06;11.50;99.90
47921;DHT22;33686;48.770;9.186;2023-12-29T11:25:33;11.50;99.90
47921;DHT22;33686;48.770;9.186;2023-12-29T11:27:59;11.50;99.90
47921;DHT22;33686;48.770;9.186;2023-12-29T11:30:26;11.60;99.90
47921;DHT22;33686;48.770;9.186;2023-12-29T11:32:57;11.60;99.90
47921;DHT22;33686;48.770;9.186;2023-12-29T11:35:26;11.70;99.90
47921;DHT22;33686;48.770;9.186;2023-12-29T11:38:07;11.60;99.90
47921;DHT22;33686;48.770;9.186;2023-12-29T11:43:20;11.70;99.90
47921;DHT22;33686;48.770;9.186;2023-12-29T11:45:46;11.60;99.90
47921;DHT22;33686;48.770;9.186;2023-12-29T11:48:11;11.70;99.90
47921;DHT22;33686;48.770;9.186;2023-12-29T11:50:38;11.70;99.90
47921;DHT22;33686;48.770;9.186;2023-12-29T11:53:07;11.70;99.90
47921;DHT22;33686;48.770;9.186;2023-12-29T11:55:36;11.80;99.90
47921;DHT22;33686;48.770;9.186;2023-12-29T11:58:03;11.80;99.90
47921;DHT22;33686;48.770;9.186;2023-12-29T12:00:48;11.90;99.90
47921;DHT22;33686;48.770;9.186;2023-12-29T12:03:17;11.90;99.90
47921;DHT22;33686;48.770;9.186;2023-12-29T12:05:47;11.90;99.90
47921;DHT22;33686;48.770;9.186;2023-12-29T12:08:32;12.00;99.90
47921;DHT22;33686;48.770;9.186;2023-12-29T12:11:41;12.00;99.90
47921;DHT22;33686;48.770;9.186;2023-12-29T12:13:45;12.00;99.90
47921;DHT22;33686;48.770;9.186;2023-12-29T12:18:55;12.00;99.90
47921;DHT22;33686;48.770;9.186;2023-12-29T12:21:22;11.90;99.90
47921;DHT22;33686;48.770;9.186;2023-12-29T12:23:49;12.00;99.90
47921;DHT22;33686;48.770;9.186;2023-12-29T12:26:15;11.90;99.90
47921;DHT22;33686;48.770;9.186;2023-12-29T12:28:41;12.00;99.90
47921;DHT22;33686;48.770;9.186;2023-12-29T12:31:09;12.00;99.90
47921;DHT22;33686;48.770;9.186;2023-12-29T12:33:37;12.00;99.90
47921;DHT22;33686;48.770;9.186;2023-12-29T12:36:03;12.00;99.90
47921;DHT22;33686;48.770;9.186;2023-12-29T12:38:29;12.00;99.90
47921;DHT22;33686;48.770;9.186;2023-12-29T12:40:57;12.00;99.90
47921;DHT22;33686;48.770;9.186;2023-12-29T12:43:23;11.90;99.90
47921;DHT22;33686;48.770;9.186;2023-12-29T12:45:54;12.00;99.90
47921;DHT22;33686;48.770;9.186;2023-12-29T12:48:29;12.00;99.90
47921;DHT22;33686;48.770;9.186;2023-12-29T12:50:57;12.10;99.90
47921;DHT22;33686;48.770;9.186;2023-12-29T12:53:25;12.10;99.90
47921;DHT22;33686;48.770;9.186;2023-12-29T12:55:51;12.20;99.90
47921;DHT22;33686;48.770;9.186;2023-12-29T12:58:17;12.30;99.90
47921;DHT22;33686;48.770;9.186;2023-12-29T13:00:43;12.40;99.90
47921;DHT22;33686;48.770;9.186;2023-12-29T13:03:09;12.40;99.90
47921;DHT22;33686;48.770;9.186;2023-12-29T13:05:35;12.50;99.90
47921;DHT22;33686;48.770;9.186;2023-12-29T13:08:01;12.50;99.90
47921;DHT22;33686;48.770;9.186;2023-12-29T13:10:28;12.50;99.90
47921;DHT22;33686;48.770;9.186;2023-12-29T13:12:54;12.50;99.90
47921;DHT22;33686;48.770;9.186;2023-12-29T13:15:20;12.60;99.90
47921;DHT22;33686;48.770;9.186;2023-12-29T13:17:50;12.50;99.90
47921;DHT22;33686;48.770;9.186;2023-12-29T13:20:15;12.50;99.90
47921;DHT22;33686;48.770;9.186;2023-12-29T13:22:41;12.40;99.90
47921;DHT22;33686;48.770;9.186;2023-12-29T13:25:06;12.40;99.90
47921;DHT22;33686;48.770;9.186;2023-12-29T13:27:36;12.40;99.90
47921;DHT22;33686;48.770;9.186;2023-12-29T13:30:02;12.30;99.90
47921;DHT22;33686;48.770;9.186;2023-12-29T13:32:28;12.30;99.90
47921;DHT22;33686;48.770;9.186;2023-12-29T13:42:35;12.20;99.90
47921;DHT22;33686;48.770;9.186;2023-12-29T13:45:03;12.20;99.90
47921;DHT22;33686;48.770;9.186;2023-12-29T13:47:30;12.10;99.90
47921;DHT22;33686;48.770;9.186;2023-12-29T13:49:56;12.10;99.90
47921;DHT22;33686;48.770;9.186;2023-12-29T13:52:21;12.10;99.90
47921;DHT22;33686;48.770;9.186;2023-12-29T13:54:47;12.10;99.90
47921;DHT22;33686;48.770;9.186;2023-12-29T13:57:14;12.10;99.90
47921;DHT22;33686;48.770;9.186;2023-12-29T13:59:40;12.10;99.90
47921;DHT22;33686;48.770;9.186;2023-12-29T14:02:27;12.10;99.90
47921;DHT22;33686;48.770;9.186;2023-12-29T14:07:43;12.00;99.90
47921;DHT22;33686;48.770;9.186;2023-12-29T14:10:10;12.00;99.90
47921;DHT22;33686;48.770;9.186;2023-12-29T14:12:35;12.00;99.90
47921;DHT22;33686;48.770;9.186;2023-12-29T14:15:04;12.00;99.90
47921;DHT22;33686;48.770;9.186;2023-12-29T14:17:30;12.00;99.90
47921;DHT22;33686;48.770;9.186;2023-12-29T14:19:56;12.00;99.90
47921;DHT22;33686;48.770;9.186;2023-12-29T14:22:26;11.90;99.90
47921;DHT22;33686;48.770;9.186;2023-12-29T14:25:07;11.90;99.90
47921;DHT22;33686;48.770;9.186;2023-12-29T14:27:33;11.90;99.90
47921;DHT22;33686;48.770;9.186;2023-12-29T14:29:58;11.90;99.90
47921;DHT22;33686;48.770;9.186;2023-12-29T14:32:24;11.90;99.90
47921;DHT22;33686;48.770;9.186;2023-12-29T14:34:50;11.90;99.90
47921;DHT22;33686;48.770;9.186;2023-12-29T14:37:18;11.90;99.90
47921;DHT22;33686;48.770;9.186;2023-12-29T14:39:50;11.80;99.90
47921;DHT22;33686;48.770;9.186;2023-12-29T14:42:16;11.80;99.90
47921;DHT22;33686;48.770;9.186;2023-12-29T14:44:45;11.80;99.90
47921;DHT22;33686;48.770;9.186;2023-12-29T14:47:10;11.80;99.90
47921;DHT22;33686;48.770;9.186;2023-12-29T14:49:37;11.80;99.90
47921;DHT22;33686;48.770;9.186;2023-12-29T14:52:03;11.80;99.90
47921;DHT22;33686;48.770;9.186;2023-12-29T14:54:29;11.80;99.90
47921;DHT22;33686;48.770;9.186;2023-12-29T14:56:54;11.80;99.90
47921;DHT22;33686;48.770;9.186;2023-12-29T14:59:20;11.80;99.90
47921;DHT22;33686;48.770;9.186;2023-12-29T15:01:46;11.80;99.90
47921;DHT22;33686;48.770;9.186;2023-12-29T15:04:14;11.80;99.90
47921;DHT22;33686;48.770;9.186;2023-12-29T15:06:40;11.70;99.90
47921;DHT22;33686;48.770;9.186;2023-12-29T15:09:07;11.70;99.90
47921;DHT22;33686;48.770;9.186;2023-12-29T15:11:36;11.70;99.90
47921;DHT22;33686;48.770;9.186;2023-12-29T15:14:02;11.60;99.90
47921;DHT22;33686;48.770;9.186;2023-12-29T15:16:28;11.60;99.90
47921;DHT22;33686;48.770;9.186;2023-12-29T15:18:53;11.60;99.90
47921;DHT22;33686;48.770;9.186;2023-12-29T15:21:19;11.50;99.90
47921;DHT22;33686;48.770;9.186;2023-12-29T15:23:44;11.50;99.90
47921;DHT22;33686;48.770;9.186;2023-12-29T15:26:11;11.40;99.90
47921;DHT22;33686;48.770;9.186;2023-12-29T15:28:40;11.40;99.90
47921;DHT22;33686;48.770;9.186;2023-12-29T15:31:05;11.30;99.90
47921;DHT22;33686;48.770;9.186;2023-12-29T15:33:31;11.20;99.90
47921;DHT22;33686;48.770;9.186;2023-12-29T15:35:56;11.20;99.90
47921;DHT22;33686;48.770;9.186;2023-12-29T15:38:22;11.20;99.90
47921;DHT22;33686;48.770;9.186;2023-12-29T15:40:50;11.10;99.90
47921;DHT22;33686;48.770;9.186;2023-12-29T15:43:15;11.10;99.90
47921;DHT22;33686;48.770;9.186;2023-12-29T15:45:41;11.10;99.90
47921;DHT22;33686;48.770;9.186;2023-12-29T15:48:06;11.10;99.90
47921;DHT22;33686;48.770;9.186;2023-12-29T15:50:32;11.10;99.90
47921;DHT22;33686;48.770;9.186;2023-12-29T15:52:58;11.00;99.90
47921;DHT22;33686;48.770;9.186;2023-12-29T15:55:23;11.10;99.90
47921;DHT22;33686;48.770;9.186;2023-12-29T15:57:49;11.00;99.90
47921;DHT22;33686;48.770;9.186;2023-12-29T16:00:15;11.00;99.90
47921;DHT22;33686;48.770;9.186;2023-12-29T16:02:40;11.00;99.90
47921;DHT22;33686;48.770;9.186;2023-12-29T16:05:06;10.90;99.90
47921;DHT22;33686;48.770;9.186;2023-12-29T16:07:32;10.90;99.90
47921;DHT22;33686;48.770;9.186;2023-12-29T16:09:57;10.90;99.90
47921;DHT22;33686;48.770;9.186;2023-12-29T16:12:23;10.90;99.90
47921;DHT22;33686;48.770;9.186;2023-12-29T16:14:49;10.80;99.90
47921;DHT22;33686;48.770;9.186;2023-12-29T16:17:14;10.80;99.90
47921;DHT22;33686;48.770;9.186;2023-12-29T16:19:40;10.80;99.90
47921;DHT22;33686;48.770;9.186;2023-12-29T16:22:05;10.80;99.90
47921;DHT22;33686;48.770;9.186;2023-12-29T16:24:31;10.70;99.90
47921;DHT22;33686;48.770;9.186;2023-12-29T16:26:56;10.70;99.90
47921;DHT22;33686;48.770;9.186;2023-12-29T16:29:22;10.60;99.90
47921;DHT22;33686;48.770;9.186;2023-12-29T16:31:48;10.50;99.90
47921;DHT22;33686;48.770;9.186;2023-12-29T16:34:13;10.40;99.90
47921;DHT22;33686;48.770;9.186;2023-12-29T16:36:39;10.40;99.90
47921;DHT22;33686;48.770;9.186;2023-12-29T16:39:05;10.30;99.90
47921;DHT22;33686;48.770;9.186;2023-12-29T16:41:30;10.30;99.90
47921;DHT22;33686;48.770;9.186;2023-12-29T16:43:57;10.20;99.90
47921;DHT22;33686;48.770;9.186;2023-12-29T16:46:23;10.20;99.90
47921;DHT22;33686;48.770;9.186;2023-12-29T16:48:48;10.20;99.90
47921;DHT22;33686;48.770;9.186;2023-12-29T16:51:15;10.20;99.90
47921;DHT22;33686;48.770;9.186;2023-12-29T16:53:40;10.10;99.90
47921;DHT22;33686;48.770;9.186;2023-12-29T16:56:06;10.10;99.90
47921;DHT22;33686;48.770;9.186;2023-12-29T16:58:32;10.10;99.90
47921;DHT22;33686;48.770;9.186;2023-12-29T17:00:57;10.00;99.90
47921;DHT22;33686;48.770;9.186;2023-12-29T17:03:23;10.00;99.90
47921;DHT22;33686;48.770;9.186;2023-12-29T17:05:49;10.00;99.90
47921;DHT22;33686;48.770;9.186;2023-12-29T17:08:15;9.90;99.90
47921;DHT22;33686;48.770;9.186;2023-12-29T17:10:43;9.90;99.90
47921;DHT22;33686;48.770;9.186;2023-12-29T17:13:09;9.90;99.90
47921;DHT22;33686;48.770;9.186;2023-12-29T17:15:35;9.80;99.90
47921;DHT22;33686;48.770;9.186;2023-12-29T17:18:00;9.80;99.90
47921;DHT22;33686;48.770;9.186;2023-12-29T17:20:26;9.80;99.90
47921;DHT22;33686;48.770;9.186;2023-12-29T17:22:52;9.80;99.90
47921;DHT22;33686;48.770;9.186;2023-12-29T17:25:18;9.80;99.90
47921;DHT22;33686;48.770;9.186;2023-12-29T17:27:43;9.70;99.90
47921;DHT22;33686;48.770;9.186;2023-12-29T17:30:10;9.70;99.90
47921;DHT22;33686;48.770;9.186;2023-12-29T17:32:36;9.60;99.90
47921;DHT22;33686;48.770;9.186;2023-12-29T17:35:03;9.60;99.90
47921;DHT22;33686;48.770;9.186;2023-12-29T17:37:29;9.60;99.90
47921;DHT22;33686;48.770;9.186;2023-12-29T17:39:58;9.50;99.90
47921;DHT22;33686;48.770;9.186;2023-12-29T17:42:24;9.50;99.90
47921;DHT22;33686;48.770;9.186;2023-12-29T17:44:50;9.40;99.90
47921;DHT22;33686;48.770;9.186;2023-12-29T17:47:16;9.40;99.90
47921;DHT22;33686;48.770;9.186;2023-12-29T17:49:41;9.30;99.90
47921;DHT22;33686;48.770;9.186;2023-12-29T17:52:08;9.30;99.90
47921;DHT22;33686;48.770;9.186;2023-12-29T17:54:34;9.30;99.90
47921;DHT22;33686;48.770;9.186;2023-12-29T17:56:59;9.20;99.90
47921;DHT22;33686;48.770;9.186;2023-12-29T17:59:25;9.20;99.90
47921;DHT22;33686;48.770;9.186;2023-12-29T18:01:51;9.10;99.90
47921;DHT22;33686;48.770;9.186;2023-12-29T18:04:17;9.10;99.90
47921;DHT22;33686;48.770;9.186;2023-12-29T18:06:43;9.10;99.90
47921;DHT22;33686;48.770;9.186;2023-12-29T18:09:09;9.10;99.90
47921;DHT22;33686;48.770;9.186;2023-12-29T18:11:39;9.00;99.90
47921;DHT22;33686;48.770;9.186;2023-12-29T18:14:05;9.00;99.90
47921;DHT22;33686;48.770;9.186;2023-12-29T18:16:31;9.00;99.90
47921;DHT22;33686;48.770;9.186;2023-12-29T18:19:00;9.00;99.90
47921;DHT22;33686;48.770;9.186;2023-12-29T18:21:26;8.90;99.90
47921;DHT22;33686;48.770;9.186;2023-12-29T18:23:51;8.90;99.90
47921;DHT22;33686;48.770;9.186;2023-12-29T18:26:17;8.80;99.90
47921;DHT22;33686;48.770;9.186;2023-12-29T18:28:43;8.80;99.90
47921;DHT22;33686;48.770;9.186;2023-12-29T18:31:09;8.80;99.90
47921;DHT22;33686;48.770;9.186;2023-12-29T18:33:39;8.70;99.90
47921;DHT22;33686;48.770;9.186;2023-12-29T18:36:06;8.60;99.90
47921;DHT22;33686;48.770;9.186;2023-12-29T18:38:32;8.60;99.90
47921;DHT22;33686;48.770;9.186;2023-12-29T18:40:57;8.60;99.90
47921;DHT22;33686;48.770;9.186;2023-12-29T18:43:24;8.60;99.90
47921;DHT22;33686;48.770;9.186;2023-12-29T18:45:49;8.60;99.90
47921;DHT22;33686;48.770;9.186;2023-12-29T18:48:15;8.60;99.90
47921;DHT22;33686;48.770;9.186;2023-12-29T18:50:41;8.60;99.90
47921;DHT22;33686;48.770;9.186;2023-12-29T18:53:07;8.50;99.90
47921;DHT22;33686;48.770;9.186;2023-12-29T18:55:34;8.50;99.90
47921;DHT22;33686;48.770;9.186;2023-12-29T18:58:00;8.50;99.90
47921;DHT22;33686;48.770;9.186;2023-12-29T19:00:26;8.50;99.90
47921;DHT22;33686;48.770;9.186;2023-12-29T19:02:52;8.50;99.90
47921;DHT22;33686;48.770;9.186;2023-12-29T19:05:18;8.50;99.90
47921;DHT22;33686;48.770;9.186;2023-12-29T19:07:44;8.50;99.90
47921;DHT22;33686;48.770;9.186;2023-12-29T19:10:09;8.40;99.90
47921;DHT22;33686;48.770;9.186;2023-12-29T19:12:36;8.40;99.90
47921;DHT22;33686;48.770;9.186;2023-12-29T19:15:03;8.50;99.90
47921;DHT22;33686;48.770;9.186;2023-12-29T19:17:30;8.40;99.90
47921;DHT22;33686;48.770;9.186;2023-12-29T19:19:55;8.40;99.90
47921;DHT22;33686;48.770;9.186;2023-12-29T19:22:21;8.40;99.90
47921;DHT22;33686;48.770;9.186;2023-12-29T19:24:47;8.50;99.90
47921;DHT22;33686;48.770;9.186;2023-12-29T19:27:13;8.40;99.90
47921;DHT22;33686;48.770;9.186;2023-12-29T19:29:42;8.40;99.90
47921;DHT22;33686;48.770;9.186;2023-12-29T19:32:08;8.40;99.90
47921;DHT22;33686;48.770;9.186;2023-12-29T19:34:34;8.50;99.90
47921;DHT22;33686;48.770;9.186;2023-12-29T19:37:00;8.50;99.90
47921;DHT22;33686;48.770;9.186;2023-12-29T19:39:26;8.50;99.90
47921;DHT22;33686;48.770;9.186;2023-12-29T19:41:52;8.40;99.90
47921;DHT22;33686;48.770;9.186;2023-12-29T19:44:18;8.40;99.90
47921;DHT22;33686;48.770;9.186;2023-12-29T19:46:44;8.50;99.90
47921;DHT22;33686;48.770;9.186;2023-12-29T19:49:10;8.50;99.90
47921;DHT22;33686;48.770;9.186;2023-12-29T19:51:35;8.50;99.90
47921;DHT22;33686;48.770;9.186;2023-12-29T19:54:01;8.60;99.90
47921;DHT22;33686;48.770;9.186;2023-12-29T19:56:28;8.50;99.90
47921;DHT22;33686;48.770;9.186;2023-12-29T19:58:54;8.50;99.90
47921;DHT22;33686;48.770;9.186;2023-12-29T20:01:20;8.50;99.90
47921;DHT22;33686;48.770;9.186;2023-12-29T20:03:46;8.50;99.90
47921;DHT22;33686;48.770;9.186;2023-12-29T20:06:19;8.50;99.90
47921;DHT22;33686;48.770;9.186;2023-12-29T20:08:47;8.50;99.90
47921;DHT22;33686;48.770;9.186;2023-12-29T20:11:13;8.50;99.90
47921;DHT22;33686;48.770;9.186;2023-12-29T20:13:38;8.50;99.90
47921;DHT22;33686;48.770;9.186;2023-12-29T20:16:04;8.60;99.90
47921;DHT22;33686;48.770;9.186;2023-12-29T20:18:30;8.60;99.90
47921;DHT22;33686;48.770;9.186;2023-12-29T20:20:56;8.60;99.90
47921;DHT22;33686;48.770;9.186;2023-12-29T20:23:22;8.60;99.90
47921;DHT22;33686;48.770;9.186;2023-12-29T20:25:47;8.70;99.90
47921;DHT22;33686;48.770;9.186;2023-12-29T20:28:15;8.80;99.90
47921;DHT22;33686;48.770;9.186;2023-12-29T20:30:40;8.80;99.90
47921;DHT22;33686;48.770;9.186;2023-12-29T20:33:06;8.80;99.90
47921;DHT22;33686;48.770;9.186;2023-12-29T20:35:31;8.90;99.90
47921;DHT22;33686;48.770;9.186;2023-12-29T20:37:57;8.90;99.90
47921;DHT22;33686;48.770;9.186;2023-12-29T20:40:23;8.90;99.90
47921;DHT22;33686;48.770;9.186;2023-12-29T20:42:51;8.90;99.90
47921;DHT22;33686;48.770;9.186;2023-12-29T20:45:17;8.90;99.90
47921;DHT22;33686;48.770;9.186;2023-12-29T20:47:43;8.80;99.90
47921;DHT22;33686;48.770;9.186;2023-12-29T20:50:09;8.80;99.90
47921;DHT22;33686;48.770;9.186;2023-12-29T20:52:34;8.90;99.90
47921;DHT22;33686;48.770;9.186;2023-12-29T20:55:00;8.90;99.90
47921;DHT22;33686;48.770;9.186;2023-12-29T20:57:26;8.90;99.90
47921;DHT22;33686;48.770;9.186;2023-12-29T20:59:51;8.90;99.90
47921;DHT22;33686;48.770;9.186;2023-12-29T21:02:17;8.90;99.90
47921;DHT22;33686;48.770;9.186;2023-12-29T21:04:43;8.80;99.90
47921;DHT22;33686;48.770;9.186;2023-12-29T21:07:08;8.80;99.90
47921;DHT22;33686;48.770;9.186;2023-12-29T21:09:34;8.80;99.90
47921;DHT22;33686;48.770;9.186;2023-12-29T21:12:00;8.80;99.90
47921;DHT22;33686;48.770;9.186;2023-12-29T21:14:26;8.80;99.90
47921;DHT22;33686;48.770;9.186;2023-12-29T21:16:51;8.70;99.90
47921;DHT22;33686;48.770;9.186;2023-12-29T21:19:17;8.70;99.90
47921;DHT22;33686;48.770;9.186;2023-12-29T21:21:43;8.70;99.90
47921;DHT22;33686;48.770;9.186;2023-12-29T21:24:12;8.70;99.90
47921;DHT22;33686;48.770;9.186;2023-12-29T21:26:38;8.70;99.90
47921;DHT22;33686;48.770;9.186;2023-12-29T21:29:04;8.70;99.90
47921;DHT22;33686;48.770;9.186;2023-12-29T21:31:30;8.60;99.90
47921;DHT22;33686;48.770;9.186;2023-12-29T21:34:00;8.70;99.90
47921;DHT22;33686;48.770;9.186;2023-12-29T21:36:27;8.70;99.90
47921;DHT22;33686;48.770;9.186;2023-12-29T21:38:55;8.70;99.90
47921;DHT22;33686;48.770;9.186;2023-12-29T21:41:21;8.70;99.90
47921;DHT22;33686;48.770;9.186;2023-12-29T21:43:48;8.70;99.90
47921;DHT22;33686;48.770;9.186;2023-12-29T21:46:14;8.70;99.90
47921;DHT22;33686;48.770;9.186;2023-12-29T21:48:40;8.70;99.90
47921;DHT22;33686;48.770;9.186;2023-12-29T21:51:06;8.70;99.90
47921;DHT22;33686;48.770;9.186;2023-12-29T21:53:33;8.70;99.90
47921;DHT22;33686;48.770;9.186;2023-12-29T21:55:59;8.70;99.90
47921;DHT22;33686;48.770;9.186;2023-12-29T21:58:28;8.70;99.90
47921;DHT22;33686;48.770;9.186;2023-12-29T22:00:55;8.70;99.90
47921;DHT22;33686;48.770;9.186;2023-12-29T22:03:21;8.60;99.90
47921;DHT22;33686;48.770;9.186;2023-12-29T22:05:48;8.60;99.90